Thunder radar more information blitzortung!


Radar de pluja more information rain snow radar


Visita la nostra xarxa de llocs de meteo:

Template documentation
and downloads

And another site



No particular awareness of the weather is required.    There are no Weather-warnings

Pagina Historial Weather Underground text

Diari Resum Agost 23, 2017 Unitats:  Mètric    Imperial   Tant
« Previous Dia
SegĂźent Dia »
Diari Setmana Mensual Anual Personalitzada
  Maxima: Minima: Media:
Temperatura: 34.2 °C 18.7 °C 27.3 °C
Punt de rosada: 19.7 °C 11.2 °C 15.8 °C
Humitat: 87 % 27 % 53 %
Wind Speed: 20.4 km/h 0.0 km/h 6.7 km/h
RĂ fegues de vent: 20.4 km/h - -
Vent:- - SSW
Pression baro: 1016.8 hPa 1013.8 hPa -
Precipitacions: 0.0 mm    
Historical Graphs
 
 
Dades de taula per Agost 23, 2017
Temps Temperatura Punt de rosada Pression baro Vent Wind Speed RĂ fegues de vent Humitat Rainfall Rate (Hourly)
00:02 22.6 °C 17.7 °C 1015.8 hPa West 3.7 km/h 3.7 km/h 74 % 0.0 mm
00:05 20.2 °C 17.2 °C 1014.8 hPa West 1.6 km/h 4.8 km/h 83 % 0.0 mm
00:15 20.1 °C 16.9 °C 1014.8 hPa Calm   3.2 km/h 82 % 0.0 mm
00:25 20.1 °C 17.1 °C 1014.8 hPa Calm   3.2 km/h 83 % 0.0 mm
00:35 19.9 °C 17.1 °C 1014.8 hPa Calm   1.6 km/h 84 % 0.0 mm
00:45 19.7 °C 16.9 °C 1014.8 hPa ENE 3.2 km/h 3.2 km/h 84 % 0.0 mm
00:55 19.6 °C 16.8 °C 1014.8 hPa Calm   3.2 km/h 84 % 0.0 mm
01:05 19.5 °C 16.7 °C 1014.8 hPa Calm   1.6 km/h 84 % 0.0 mm
01:10 19.5 °C 16.7 °C 1014.8 hPa Calm     84 % 0.0 mm
01:20 19.3 °C 16.5 °C 1014.8 hPa Calm   1.6 km/h 84 % 0.0 mm
01:30 19.2 °C 16.6 °C 1014.8 hPa Calm   3.2 km/h 85 % 0.0 mm
01:40 19.3 °C 16.7 °C 1014.8 hPa Calm   1.6 km/h 85 % 0.0 mm
01:50 19.3 °C 16.7 °C 1014.8 hPa Calm   1.6 km/h 85 % 0.0 mm
02:00 19.3 °C 16.7 °C 1014.8 hPa Calm     85 % 0.0 mm
02:10 19.2 °C 16.6 °C 1014.8 hPa NNW 1.6 km/h 1.6 km/h 85 % 0.0 mm
02:20 19.1 °C 16.5 °C 1014.8 hPa Calm   1.6 km/h 85 % 0.0 mm
02:30 19.1 °C 16.7 °C 1014.8 hPa Calm   3.2 km/h 86 % 0.0 mm
02:40 19.1 °C 16.7 °C 1014.8 hPa ESE 1.6 km/h 3.2 km/h 86 % 0.0 mm
02:50 19.0 °C 16.6 °C 1014.8 hPa Calm   3.2 km/h 86 % 0.0 mm
03:00 19.0 °C 16.6 °C 1014.8 hPa Calm   3.2 km/h 86 % 0.0 mm
03:10 18.9 °C 16.7 °C 1014.8 hPa Calm   1.6 km/h 87 % 0.0 mm
03:20 18.7 °C 16.3 °C 1015.8 hPa Calm     86 % 0.0 mm
03:30 18.7 °C 16.3 °C 1015.8 hPa Calm     86 % 0.0 mm
03:40 18.8 °C 16.4 °C 1015.8 hPa Calm     86 % 0.0 mm
03:50 18.9 °C 16.5 °C 1015.8 hPa WSW 1.6 km/h 1.6 km/h 86 % 0.0 mm
04:00 19.3 °C 16.9 °C 1015.8 hPa Calm   1.6 km/h 86 % 0.0 mm
04:10 19.5 °C 16.7 °C 1015.8 hPa WSW 1.6 km/h 1.6 km/h 84 % 0.0 mm
04:20 20.0 °C 16.8 °C 1015.8 hPa ENE 1.6 km/h 3.2 km/h 82 % 0.0 mm
04:30 20.6 °C 16.6 °C 1015.8 hPa ENE 1.6 km/h 3.2 km/h 78 % 0.0 mm
04:40 20.9 °C 16.5 °C 1015.8 hPa ENE 1.6 km/h 4.8 km/h 76 % 0.0 mm
04:50 21.3 °C 16.5 °C 1015.8 hPa ENE 1.6 km/h 3.2 km/h 74 % 0.0 mm
05:00 22.0 °C 16.3 °C 1015.8 hPa ENE 3.2 km/h 4.8 km/h 70 % 0.0 mm
05:10 22.4 °C 16.2 °C 1015.8 hPa ENE 3.2 km/h 4.8 km/h 68 % 0.0 mm
10:13 25.4 °C 18.1 °C 1016.8 hPa WSW 6.9 km/h 6.9 km/h 64 % 0.0 mm
10:14 25.4 °C 18.1 °C 1016.8 hPa SW 7.4 km/h 7.4 km/h 64 % 0.0 mm
10:19 25.7 °C 18.4 °C 1016.8 hPa SW 6.1 km/h 6.1 km/h 64 % 0.0 mm
10:24 25.8 °C 18.4 °C 1016.8 hPa West 7.4 km/h 7.4 km/h 64 % 0.0 mm
10:29 25.9 °C 18.6 °C 1015.8 hPa WSW 3.7 km/h 3.7 km/h 64 % 0.0 mm
10:34 26.1 °C 18.8 °C 1015.8 hPa WSW 5.6 km/h 5.6 km/h 64 % 0.0 mm
10:39 26.8 °C 19.4 °C 1015.8 hPa SE 3.7 km/h 3.7 km/h 64 % 0.0 mm
10:44 26.4 °C 18.6 °C 1015.8 hPa East 3.7 km/h 3.7 km/h 62 % 0.0 mm
10:49 26.4 °C 18.8 °C 1015.8 hPa SW 5.0 km/h 5.0 km/h 63 % 0.0 mm
10:54 26.6 °C 19.2 °C 1015.8 hPa SW 5.6 km/h 5.6 km/h 64 % 0.0 mm
10:59 26.9 °C 19.3 °C 1015.8 hPa SW 3.7 km/h 3.7 km/h 63 % 0.0 mm
11:04 27.6 °C 19.7 °C 1015.8 hPa SW 5.6 km/h 5.6 km/h 62 % 0.0 mm
11:09 27.4 °C 19.2 °C 1015.8 hPa NW 3.7 km/h 3.7 km/h 61 % 0.0 mm
11:14 27.6 °C 18.9 °C 1016.8 hPa SSE 4.7 km/h 4.7 km/h 59 % 0.0 mm
11:19 27.9 °C 18.9 °C 1016.8 hPa South 5.8 km/h 5.8 km/h 58 % 0.0 mm
11:24 28.4 °C 19.3 °C 1016.8 hPa SE 5.6 km/h   58 % 0.0 mm
11:29 28.5 °C 19.4 °C 1015.8 hPa SW 5.6 km/h 5.6 km/h 58 % 0.0 mm
11:34 28.6 °C 19.2 °C 1015.8 hPa ENE 3.7 km/h 3.7 km/h 57 % 0.0 mm
11:39 29.1 °C 18.8 °C 1015.8 hPa East 5.0 km/h 5.0 km/h 54 % 0.0 mm
11:44 29.4 °C 18.8 °C 1015.8 hPa East 3.7 km/h 3.7 km/h 53 % 0.0 mm
11:49 29.8 °C 19.5 °C 1015.8 hPa ESE 5.6 km/h 5.6 km/h 54 % 0.0 mm
11:54 30.0 °C 19.4 °C 1015.8 hPa WSW 4.7 km/h 4.7 km/h 53 % 0.0 mm
11:59 30.0 °C 18.4 °C 1015.8 hPa ENE 5.6 km/h 5.6 km/h 50 % 0.0 mm
12:04 30.6 °C 19.3 °C 1015.8 hPa SW 4.7 km/h 5.0 km/h 51 % 0.0 mm
12:09 30.3 °C 18.4 °C 1015.8 hPa WSW 7.4 km/h 7.4 km/h 49 % 0.0 mm
12:14 30.2 °C 18.0 °C 1016.8 hPa SW 4.2 km/h 6.1 km/h 48 % 0.0 mm
12:19 30.7 °C 17.4 °C 1016.8 hPa SSE 3.7 km/h 3.7 km/h 45 % 0.0 mm
12:24 30.9 °C 17.2 °C 1016.8 hPa SSE 6.9 km/h 6.9 km/h 44 % 0.0 mm
12:29 31.4 °C 18.1 °C 1015.8 hPa SSW 3.7 km/h 3.7 km/h 45 % 0.0 mm
12:30 31.4 °C 18.1 °C 1015.8 hPa West 3.7 km/h 3.7 km/h 45 % 0.0 mm
12:35 32.0 °C 17.8 °C 1015.8 hPa SW 3.7 km/h 3.7 km/h 43 % 0.0 mm
12:40 31.6 °C 17.5 °C 1015.8 hPa SSE 7.4 km/h 7.4 km/h 43 % 0.0 mm
12:45 31.3 °C 16.8 °C 1015.8 hPa SSW 10.3 km/h 10.3 km/h 42 % 0.0 mm
12:50 31.2 °C 17.5 °C 1015.8 hPa ESE 5.8 km/h 5.8 km/h 44 % 0.0 mm
12:55 30.8 °C 17.8 °C 1015.8 hPa WSW 10.0 km/h 10.0 km/h 46 % 0.0 mm
13:00 30.2 °C 17.3 °C 1014.8 hPa SE 9.3 km/h 9.3 km/h 46 % 0.0 mm
13:05 31.1 °C 18.1 °C 1014.8 hPa West 5.0 km/h 5.0 km/h 46 % 0.0 mm
13:10 31.0 °C 18.0 °C 1014.8 hPa SW 10.3 km/h 10.3 km/h 46 % 0.0 mm
13:15 31.2 °C 18.2 °C 1015.8 hPa SSW 9.5 km/h 9.5 km/h 46 % 0.0 mm
13:20 31.2 °C 18.2 °C 1015.8 hPa WSW 9.3 km/h 9.3 km/h 46 % 0.0 mm
13:25 31.8 °C 18.4 °C 1015.8 hPa SE 5.8 km/h 5.8 km/h 45 % 0.0 mm
13:30 32.0 °C 18.6 °C 1015.8 hPa West 5.6 km/h 5.6 km/h 45 % 0.0 mm
13:35 32.0 °C 18.2 °C 1015.8 hPa NNE 5.6 km/h 5.6 km/h 44 % 0.0 mm
13:40 32.3 °C 18.8 °C 1015.8 hPa SW 11.1 km/h 11.1 km/h 45 % 0.0 mm
13:45 32.3 °C 18.1 °C 1016.8 hPa South 5.6 km/h 5.6 km/h 43 % 0.0 mm
13:50 33.0 °C 18.8 °C 1016.8 hPa SW 11.1 km/h 11.1 km/h 43 % 0.0 mm
13:55 32.5 °C 18.3 °C 1016.8 hPa ESE 9.5 km/h 9.5 km/h 43 % 0.0 mm
14:00 32.4 °C 18.6 °C 1015.8 hPa NNW 9.3 km/h 9.3 km/h 44 % 0.0 mm
14:05 32.8 °C 18.9 °C 1015.8 hPa SSE 11.1 km/h 11.1 km/h 44 % 0.0 mm
14:10 33.2 °C 18.6 °C 1015.8 hPa West 3.7 km/h 3.9 km/h 42 % 0.0 mm
14:15 33.8 °C 19.1 °C 1015.8 hPa SW 9.3 km/h 9.3 km/h 42 % 0.0 mm
14:20 33.7 °C 19.0 °C 1015.8 hPa SW 9.5 km/h 9.5 km/h 42 % 0.0 mm
14:25 33.4 °C 18.3 °C 1015.8 hPa WSW 9.3 km/h 9.3 km/h 41 % 0.0 mm
14:30 33.4 °C 17.9 °C 1015.8 hPa SSW 13.0 km/h 13.0 km/h 40 % 0.0 mm
14:35 33.4 °C 17.9 °C 1015.8 hPa West 13.0 km/h 13.0 km/h 40 % 0.0 mm
14:40 33.8 °C 18.3 °C 1015.8 hPa WSW 9.3 km/h 9.3 km/h 40 % 0.0 mm
14:45 33.6 °C 17.3 °C 1014.8 hPa SW 14.8 km/h 14.8 km/h 38 % 0.0 mm
14:50 33.2 °C 16.9 °C 1014.8 hPa WSW 14.8 km/h 14.8 km/h 38 % 0.0 mm
14:55 33.4 °C 16.7 °C 1014.8 hPa WSW 13.0 km/h 13.0 km/h 37 % 0.0 mm
15:00 33.4 °C 16.7 °C 1014.8 hPa WSW 11.1 km/h 11.1 km/h 37 % 0.0 mm
15:05 33.5 °C 16.4 °C 1014.8 hPa South 13.0 km/h 13.0 km/h 36 % 0.0 mm
15:10 33.5 °C 16.4 °C 1014.8 hPa South 4.7 km/h 4.7 km/h 36 % 0.0 mm
15:15 33.8 °C 16.7 °C 1014.8 hPa West 11.1 km/h 11.1 km/h 36 % 0.0 mm
15:20 33.9 °C 16.7 °C 1014.8 hPa SSW 11.1 km/h 11.1 km/h 36 % 0.0 mm
15:25 33.7 °C 16.1 °C 1014.8 hPa South 14.8 km/h 14.8 km/h 35 % 0.0 mm
15:30 33.4 °C 15.4 °C 1014.8 hPa SW 11.1 km/h 11.1 km/h 34 % 0.0 mm
15:35 33.6 °C 14.6 °C 1014.8 hPa SW 13.0 km/h 13.0 km/h 32 % 0.0 mm
15:40 33.8 °C 14.3 °C 1014.8 hPa West 11.1 km/h 11.1 km/h 31 % 0.0 mm
15:45 33.8 °C 13.8 °C 1013.8 hPa SE 11.1 km/h 11.1 km/h 30 % 0.0 mm
15:50 33.7 °C 13.2 °C 1013.8 hPa West 10.0 km/h 10.0 km/h 29 % 0.0 mm
15:55 34.2 °C 13.1 °C 1013.8 hPa SSE 11.1 km/h 11.1 km/h 28 % 0.0 mm
16:00 33.9 °C 12.3 °C 1014.8 hPa South 16.7 km/h 16.7 km/h 27 % 0.0 mm
16:05 34.1 °C 13.0 °C 1014.8 hPa SW 16.7 km/h 16.7 km/h 28 % 0.0 mm
16:10 33.8 °C 12.2 °C 1014.8 hPa SW 9.3 km/h 9.3 km/h 27 % 0.0 mm
16:15 33.8 °C 12.2 °C 1014.8 hPa SW 13.0 km/h 13.0 km/h 27 % 0.0 mm
16:20 33.9 °C 12.3 °C 1014.8 hPa WSW 16.7 km/h 16.7 km/h 27 % 0.0 mm
16:25 33.3 °C 11.8 °C 1014.8 hPa West 16.7 km/h 16.7 km/h 27 % 0.0 mm
16:30 33.0 °C 11.5 °C 1014.8 hPa SW 16.7 km/h 16.7 km/h 27 % 0.0 mm
16:35 33.5 °C 11.9 °C 1014.8 hPa South 13.0 km/h 13.0 km/h 27 % 0.0 mm
16:40 33.3 °C 12.3 °C 1014.8 hPa SSW 10.0 km/h 10.0 km/h 28 % 0.0 mm
16:45 32.6 °C 11.2 °C 1014.8 hPa SW 13.0 km/h 13.0 km/h 27 % 0.0 mm
16:50 31.9 °C 11.7 °C 1014.8 hPa SSW 13.0 km/h 13.0 km/h 29 % 0.0 mm
16:55 32.3 °C 12.0 °C 1014.8 hPa SSW 11.1 km/h 11.1 km/h 29 % 0.0 mm
17:00 32.7 °C 12.3 °C 1014.8 hPa SW 13.7 km/h 13.7 km/h 29 % 0.0 mm
17:05 32.5 °C 12.7 °C 1014.8 hPa SW 9.3 km/h 9.3 km/h 30 % 0.0 mm
17:10 31.8 °C 11.6 °C 1014.8 hPa WSW 14.8 km/h 14.8 km/h 29 % 0.0 mm
17:15 32.0 °C 11.7 °C 1014.8 hPa SSW 13.0 km/h 13.0 km/h 29 % 0.0 mm
17:20 32.2 °C 11.9 °C 1014.8 hPa SW 9.0 km/h 9.0 km/h 29 % 0.0 mm
17:25 32.0 °C 11.2 °C 1014.8 hPa SSW 20.4 km/h 20.4 km/h 28 % 0.0 mm
17:30 32.0 °C 11.7 °C 1014.8 hPa WSW 11.1 km/h 11.1 km/h 29 % 0.0 mm
17:35 32.3 °C 12.5 °C 1014.8 hPa SSW 13.0 km/h 13.0 km/h 30 % 0.0 mm
17:40 31.9 °C 12.2 °C 1014.8 hPa South 11.1 km/h 11.1 km/h 30 % 0.0 mm
17:45 31.4 °C 11.2 °C 1014.8 hPa WSW 14.8 km/h 14.8 km/h 29 % 0.0 mm
17:50 31.1 °C 11.5 °C 1014.8 hPa SSW 9.3 km/h 9.3 km/h 30 % 0.0 mm
17:55 31.0 °C 11.4 °C 1014.8 hPa SSW 14.8 km/h 14.8 km/h 30 % 0.0 mm
18:00 31.0 °C 11.9 °C 1014.8 hPa SSW 13.0 km/h 13.0 km/h 31 % 0.0 mm
18:05 31.0 °C 12.4 °C 1014.8 hPa SSE 6.4 km/h 6.4 km/h 32 % 0.0 mm
18:10 31.3 °C 12.6 °C 1014.8 hPa WSW 13.0 km/h 13.0 km/h 32 % 0.0 mm
18:15 31.4 °C 12.2 °C 1014.8 hPa SW 9.3 km/h 9.3 km/h 31 % 0.0 mm
18:20 30.8 °C 11.2 °C 1014.8 hPa SW 18.5 km/h 18.5 km/h 30 % 0.0 mm
18:25 30.2 °C 11.2 °C 1014.8 hPa SW 13.0 km/h 13.0 km/h 31 % 0.0 mm
18:30 29.8 °C 11.3 °C 1014.8 hPa SW 13.0 km/h 13.0 km/h 32 % 0.0 mm
18:35 29.6 °C 11.2 °C 1014.8 hPa SSW 11.1 km/h 11.1 km/h 32 % 0.0 mm
18:40 29.5 °C 11.6 °C 1014.8 hPa SW 9.5 km/h 9.5 km/h 33 % 0.0 mm
18:45 29.3 °C 12.3 °C 1014.8 hPa SSW 7.4 km/h 7.4 km/h 35 % 0.0 mm
18:50 29.2 °C 12.6 °C 1014.8 hPa SW 11.1 km/h 11.1 km/h 36 % 0.0 mm
18:55 29.4 °C 12.8 °C 1014.8 hPa SW 6.4 km/h 6.4 km/h 36 % 0.0 mm
19:00 29.3 °C 12.7 °C 1014.8 hPa SW 11.1 km/h 11.1 km/h 36 % 0.0 mm
19:05 28.9 °C 12.7 °C 1014.8 hPa SSW 9.5 km/h 9.5 km/h 37 % 0.0 mm
19:10 28.5 °C 12.8 °C 1014.8 hPa SW 9.3 km/h 9.3 km/h 38 % 0.0 mm
19:15 28.3 °C 12.6 °C 1014.8 hPa SW 4.7 km/h 4.7 km/h 38 % 0.0 mm
19:20 28.1 °C 12.8 °C 1014.8 hPa West 11.1 km/h 11.1 km/h 39 % 0.0 mm
19:25 27.9 °C 12.7 °C 1014.8 hPa SW 9.3 km/h 9.3 km/h 39 % 0.0 mm
19:30 27.6 °C 12.4 °C 1014.8 hPa SW 7.4 km/h 7.4 km/h 39 % 0.0 mm
19:35 27.5 °C 12.3 °C 1014.8 hPa West 1.9 km/h   39 % 0.0 mm
19:40 27.4 °C 12.2 °C 1014.8 hPa WSW 3.7 km/h 3.7 km/h 39 % 0.0 mm
19:45 27.4 °C 12.2 °C 1014.8 hPa WSW 6.9 km/h 6.9 km/h 39 % 0.0 mm
19:50 27.3 °C 12.5 °C 1014.8 hPa SW 8.7 km/h 8.7 km/h 40 % 0.0 mm
19:55 27.1 °C 12.3 °C 1014.8 hPa SW 9.3 km/h 9.3 km/h 40 % 0.0 mm
20:00 27.0 °C 12.6 °C 1015.8 hPa SSW 7.4 km/h 7.4 km/h 41 % 0.0 mm
20:05 26.7 °C 13.1 °C 1015.8 hPa SSW 9.3 km/h 9.3 km/h 43 % 0.0 mm
20:10 26.6 °C 13.0 °C 1015.8 hPa SW 3.7 km/h 3.7 km/h 43 % 0.0 mm
20:15 26.5 °C 13.3 °C 1014.8 hPa SW 6.1 km/h 6.1 km/h 44 % 0.0 mm
20:20 26.4 °C 13.5 °C 1014.8 hPa SW 3.7 km/h 3.7 km/h 45 % 0.0 mm
20:25 26.2 °C 13.7 °C 1014.8 hPa SSW 5.6 km/h 5.6 km/h 46 % 0.0 mm
20:30 26.1 °C 13.9 °C 1014.8 hPa SSW 7.4 km/h 7.4 km/h 47 % 0.0 mm
20:35 26.0 °C 13.8 °C 1014.8 hPa SW 5.6 km/h 5.6 km/h 47 % 0.0 mm
20:40 25.9 °C 14.1 °C 1014.8 hPa SW 5.6 km/h 5.6 km/h 48 % 0.0 mm
20:45 25.7 °C 14.2 °C 1015.8 hPa SW 11.1 km/h 11.1 km/h 49 % 0.0 mm
20:50 25.6 °C 14.4 °C 1015.8 hPa SW 9.7 km/h 9.7 km/h 50 % 0.0 mm
20:55 25.5 °C 14.3 °C 1015.8 hPa WSW 9.3 km/h 9.3 km/h 50 % 0.0 mm
21:00 25.4 °C 14.5 °C 1014.8 hPa West 7.4 km/h 7.4 km/h 51 % 0.0 mm
21:05 25.3 °C 14.4 °C 1014.8 hPa West 7.4 km/h 7.4 km/h 51 % 0.0 mm
21:10 25.2 °C 14.7 °C 1014.8 hPa SW 5.6 km/h 5.6 km/h 52 % 0.0 mm
21:15 25.2 °C 14.7 °C 1014.8 hPa SW 7.4 km/h 7.4 km/h 52 % 0.0 mm
21:20 25.0 °C 15.1 °C 1014.8 hPa SW 9.3 km/h 9.3 km/h 54 % 0.0 mm
21:25 25.0 °C 15.3 °C 1014.8 hPa NW 5.6 km/h 5.6 km/h 55 % 0.0 mm
21:30 24.8 °C 15.7 °C 1014.8 hPa SW 5.6 km/h 5.6 km/h 57 % 0.0 mm
21:35 24.8 °C 15.7 °C 1014.8 hPa WSW 5.6 km/h 5.6 km/h 57 % 0.0 mm
21:40 24.7 °C 15.9 °C 1014.8 hPa SW 3.7 km/h 3.7 km/h 58 % 0.0 mm
21:45 24.6 °C 16.1 °C 1015.8 hPa WSW 3.9 km/h 3.9 km/h 59 % 0.0 mm
21:50 24.6 °C 16.1 °C 1015.8 hPa SW 5.6 km/h 5.6 km/h 59 % 0.0 mm
21:55 24.5 °C 16.2 °C 1015.8 hPa SW 3.7 km/h 3.7 km/h 60 % 0.0 mm
22:00 24.4 °C 16.1 °C 1015.8 hPa SSW 3.7 km/h 3.7 km/h 60 % 0.0 mm
22:05 24.2 °C 15.9 °C 1015.8 hPa WSW 6.1 km/h 6.1 km/h 60 % 0.0 mm
22:10 24.1 °C 16.4 °C 1015.8 hPa SW 4.2 km/h 4.2 km/h 62 % 0.0 mm
22:15 24.1 °C 16.4 °C 1015.8 hPa South 5.8 km/h 5.8 km/h 62 % 0.0 mm
22:20 24.0 °C 16.3 °C 1015.8 hPa SSW 6.1 km/h 6.1 km/h 62 % 0.0 mm
22:25 23.9 °C 16.7 °C 1015.8 hPa West 4.2 km/h 4.2 km/h 64 % 0.0 mm
22:30 23.9 °C 16.9 °C 1015.8 hPa SW 5.3 km/h 5.3 km/h 65 % 0.0 mm
22:35 23.8 °C 16.8 °C 1015.8 hPa SW 3.7 km/h 3.7 km/h 65 % 0.0 mm
22:40 23.7 °C 16.9 °C 1015.8 hPa SW 4.2 km/h 4.2 km/h 66 % 0.0 mm
22:42 23.7 °C 16.9 °C 1014.8 hPa West 4.2 km/h 4.2 km/h 66 % 0.0 mm
22:47 23.7 °C 16.9 °C 1014.8 hPa West 1.9 km/h 2.3 km/h 66 % 0.0 mm
22:50 21.8 °C 17.2 °C 1014.8 hPa SW 3.2 km/h 4.8 km/h 75 % 0.0 mm
22:52 23.6 °C 17.3 °C 1014.8 hPa Calm     68 % 0.0 mm
22:57 23.6 °C 16.9 °C 1015.8 hPa West 3.7 km/h 3.7 km/h 66 % 0.0 mm
23:00 21.9 °C 17.5 °C 1014.8 hPa WSW 3.2 km/h 3.2 km/h 76 % 0.0 mm
23:02 23.6 °C 17.3 °C 1015.8 hPa SW 3.7 km/h   68 % 0.0 mm
23:07 23.5 °C 17.3 °C 1015.8 hPa SW 3.7 km/h 3.7 km/h 68 % 0.0 mm
23:10 22.0 °C 17.6 °C 1014.8 hPa SW 3.2 km/h 3.2 km/h 76 % 0.0 mm
23:12 23.5 °C 17.3 °C 1015.8 hPa SW 3.7 km/h 3.7 km/h 68 % 0.0 mm
23:17 23.5 °C 17.3 °C 1015.8 hPa SW 3.7 km/h 3.7 km/h 68 % 0.0 mm
23:20 22.1 °C 17.7 °C 1014.8 hPa WSW 3.2 km/h 4.8 km/h 76 % 0.0 mm
23:22 23.3 °C 17.1 °C 1015.8 hPa SW 5.0 km/h 5.0 km/h 68 % 0.0 mm
23:27 23.3 °C 17.3 °C 1015.8 hPa SSW 3.7 km/h 3.7 km/h 69 % 0.0 mm
23:30 22.0 °C 17.6 °C 1015.8 hPa WSW 3.2 km/h 4.8 km/h 76 % 0.0 mm
23:32 23.3 °C 17.3 °C 1015.8 hPa SSW 3.9 km/h 3.9 km/h 69 % 0.0 mm
23:37 23.2 °C 17.4 °C 1015.8 hPa SW 3.7 km/h 3.7 km/h 70 % 0.0 mm
23:40 22.0 °C 17.6 °C 1015.8 hPa WSW 4.8 km/h 9.7 km/h 76 % 0.0 mm
23:42 23.3 °C 17.5 °C 1015.8 hPa SW 3.7 km/h 3.7 km/h 70 % 0.0 mm
23:47 23.2 °C 17.4 °C 1015.8 hPa WSW 3.7 km/h 3.7 km/h 70 % 0.0 mm
23:50 22.0 °C 17.6 °C 1014.8 hPa WSW 1.6 km/h 4.8 km/h 76 % 0.0 mm
23:52 23.2 °C 17.4 °C 1015.8 hPa SW 3.7 km/h 3.7 km/h 70 % 0.0 mm
23:57 23.2 °C 17.4 °C 1015.8 hPa SW 5.3 km/h 5.3 km/h 70 % 0.0 mm
Meteo Sesrovires
Elogis d' Weather Underground - 3.5 mb

Guio original per  Jim McMurry - jmcmurry@mwt.net Adaptat per a la plantilla per  Wim van der Kuil - Leuven-Template.eu

Trobareu la nostra informacio del temps tambe a:

Weather Underground

AWEKAS